createdAt,value
2023-03-30T00:00:59.825Z,17.05
2023-03-30T00:03:28.377Z,18.20
2023-03-30T00:05:59.405Z,18.08
2023-03-30T00:08:28.374Z,16.63
2023-03-30T00:11:15.199Z,17.00
2023-03-30T00:13:55.255Z,15.57
2023-03-30T00:16:25.275Z,16.77
2023-03-30T00:18:54.147Z,16.65
2023-03-30T00:21:22.786Z,16.00
2023-03-30T00:23:57.024Z,15.77
2023-03-30T00:26:24.327Z,16.02
2023-03-30T00:28:54.568Z,15.30
2023-03-30T00:31:28.575Z,17.27
2023-03-30T00:33:56.287Z,16.27
2023-03-30T00:36:29.753Z,14.88
2023-03-30T00:38:56.932Z,16.85
2023-03-30T00:41:28.900Z,16.10
2023-03-30T00:44:37.604Z,15.65
2023-03-30T00:47:04.437Z,16.13
2023-03-30T00:49:36.215Z,16.25
2023-03-30T00:52:03.365Z,14.82
2023-03-30T00:54:30.690Z,17.08
2023-03-30T00:56:57.517Z,15.73
2023-03-30T00:59:24.370Z,16.65
2023-03-30T01:01:52.941Z,16.25
2023-03-30T01:04:20.758Z,15.85
2023-03-30T01:06:48.892Z,17.02
2023-03-30T01:09:16.573Z,15.73
2023-03-30T01:11:44.171Z,15.57
2023-03-30T01:14:15.505Z,15.70
2023-03-30T01:16:43.154Z,14.38
2023-03-30T01:19:21.991Z,15.25
2023-03-30T01:22:34.829Z,14.68
2023-03-30T01:25:38.439Z,13.68
2023-03-30T01:28:14.127Z,11.60
2023-03-30T01:31:02.397Z,12.50
2023-03-30T01:33:51.207Z,12.75
2023-03-30T01:36:34.450Z,14.73
2023-03-30T01:39:16.472Z,15.00
2023-03-30T01:41:52.443Z,17.60
2023-03-30T01:45:04.314Z,17.17
2023-03-30T01:47:53.160Z,15.15
2023-03-30T01:50:33.501Z,15.30
2023-03-30T01:53:14.916Z,14.88
2023-03-30T01:55:47.760Z,15.20
2023-03-30T01:58:30.922Z,14.98
2023-03-30T02:01:04.321Z,14.07
2023-03-30T02:03:38.916Z,14.65
2023-03-30T02:06:25.740Z,14.73
2023-03-30T02:08:54.858Z,13.55
2023-03-30T02:11:23.778Z,14.45
2023-03-30T02:13:52.898Z,13.35
2023-03-30T02:16:28.523Z,13.75
2023-03-30T02:18:55.782Z,13.18
2023-03-30T02:21:24.625Z,13.50
2023-03-30T02:23:55.431Z,13.05
2023-03-30T02:26:23.031Z,13.20
2023-03-30T02:28:51.624Z,12.73
2023-03-30T02:31:18.630Z,12.63
2023-03-30T02:34:04.047Z,13.07
2023-03-30T02:36:56.835Z,13.95
2023-03-30T02:39:50.105Z,13.43
2023-03-30T02:42:34.572Z,12.23
2023-03-30T02:45:16.642Z,13.20
2023-03-30T02:47:52.394Z,12.65
2023-03-30T02:50:31.915Z,12.32
2023-03-30T02:53:10.841Z,12.88
2023-03-30T02:55:46.091Z,11.35
2023-03-30T02:58:34.660Z,12.27
2023-03-30T03:01:14.668Z,12.07
2023-03-30T03:03:48.618Z,11.45
2023-03-30T03:06:16.412Z,11.70
2023-03-30T03:08:47.828Z,11.68
2023-03-30T03:11:16.148Z,11.57
2023-03-30T03:13:43.123Z,11.90
2023-03-30T03:16:12.156Z,13.27
2023-03-30T03:18:42.270Z,11.15
2023-03-30T03:21:10.413Z,12.05
2023-03-30T03:23:37.618Z,11.65
2023-03-30T03:26:05.127Z,12.18
2023-03-30T03:28:32.036Z,11.27
2023-03-30T03:31:00.070Z,11.73
2023-03-30T03:33:27.641Z,11.18
2023-03-30T03:35:59.170Z,9.77
2023-03-30T03:38:29.919Z,11.25
2023-03-30T03:43:25.705Z,11.05
2023-03-30T03:45:53.026Z,10.27
2023-03-30T03:48:22.336Z,10.77
2023-03-30T03:50:57.778Z,11.10
2023-03-30T03:53:29.555Z,10.48
2023-03-30T03:55:56.449Z,9.90
2023-03-30T03:58:26.574Z,9.98
2023-03-30T04:00:58.640Z,10.05
2023-03-30T04:03:25.833Z,9.45
2023-03-30T04:05:52.644Z,9.75
2023-03-30T04:08:19.526Z,9.75
2023-03-30T04:10:46.390Z,9.65
2023-03-30T04:13:13.063Z,9.50
2023-03-30T04:15:39.953Z,9.65
2023-03-30T04:18:08.466Z,9.85
2023-03-30T04:20:35.197Z,9.63
2023-03-30T04:23:02.114Z,9.98
2023-03-30T04:25:29.203Z,9.63
2023-03-30T04:27:57.287Z,10.63
2023-03-30T04:30:24.973Z,9.77
2023-03-30T04:33:02.769Z,9.63
2023-03-30T04:35:34.111Z,11.05
2023-03-30T04:38:02.674Z,9.80
2023-03-30T04:40:30.223Z,10.00
2023-03-30T04:43:02.441Z,11.13
2023-03-30T04:45:30.370Z,10.77
2023-03-30T04:47:59.491Z,10.70
2023-03-30T04:50:26.772Z,9.85
2023-03-30T04:52:53.497Z,11.60
2023-03-30T04:55:20.248Z,14.25
2023-03-30T04:57:48.661Z,16.85
2023-03-30T05:00:16.204Z,19.48
2023-03-30T05:02:43.539Z,18.15
2023-03-30T05:05:10.538Z,12.20
2023-03-30T05:07:37.246Z,12.10
2023-03-30T05:10:04.144Z,12.23
2023-03-30T05:12:31.138Z,13.05
2023-03-30T05:14:57.952Z,10.98
2023-03-30T05:17:24.808Z,12.25
2023-03-30T05:19:51.556Z,10.55
2023-03-30T05:22:18.283Z,10.15
2023-03-30T05:24:44.976Z,9.60
2023-03-30T05:27:13.232Z,10.68
2023-03-30T05:29:40.006Z,8.25
2023-03-30T05:32:06.869Z,10.30
2023-03-30T05:34:35.143Z,9.45
2023-03-30T05:37:01.858Z,9.65
2023-03-30T05:39:28.717Z,10.60
2023-03-30T05:41:55.452Z,12.20
2023-03-30T05:44:22.625Z,13.23
2023-03-30T05:46:49.680Z,9.75
2023-03-30T05:49:16.434Z,9.88
2023-03-30T05:51:43.098Z,9.98
2023-03-30T05:54:13.166Z,9.70
2023-03-30T05:56:42.170Z,8.75
2023-03-30T05:59:10.265Z,9.50
2023-03-30T06:01:37.654Z,9.02
2023-03-30T06:04:04.677Z,9.48
2023-03-30T06:06:31.486Z,9.60
2023-03-30T06:08:58.177Z,9.55
2023-03-30T06:11:24.976Z,8.77
2023-03-30T06:13:51.903Z,9.82
2023-03-30T06:16:18.843Z,8.68
2023-03-30T06:18:46.045Z,8.13
2023-03-30T06:21:12.793Z,8.93
2023-03-30T06:23:40.927Z,8.77
2023-03-30T06:26:08.121Z,8.63
2023-03-30T06:28:35.116Z,8.98
2023-03-30T06:31:07.008Z,9.18
2023-03-30T06:33:33.693Z,7.95
2023-03-30T06:36:00.402Z,8.07
2023-03-30T06:38:27.624Z,7.93
2023-03-30T06:40:54.313Z,7.90
2023-03-30T06:43:24.060Z,8.25
2023-03-30T06:45:52.728Z,11.13
2023-03-30T06:48:23.804Z,9.65
2023-03-30T06:50:51.511Z,8.00
2023-03-30T06:53:18.882Z,8.77
2023-03-30T06:55:50.312Z,7.95
2023-03-30T06:58:17.115Z,9.15
2023-03-30T07:00:43.922Z,9.50
2023-03-30T07:03:10.714Z,9.40
2023-03-30T07:05:37.745Z,14.48
2023-03-30T07:08:05.976Z,10.38
2023-03-30T07:10:32.945Z,9.95
2023-03-30T07:12:59.645Z,8.88
2023-03-30T07:15:26.480Z,7.72
2023-03-30T07:17:53.570Z,10.02
2023-03-30T07:20:20.504Z,9.63
2023-03-30T07:22:47.176Z,11.85
2023-03-30T07:25:14.431Z,9.00
2023-03-30T07:27:41.361Z,8.70
2023-03-30T07:30:20.724Z,7.25
2023-03-30T07:32:50.635Z,7.18
2023-03-30T07:35:18.437Z,8.75
2023-03-30T07:37:45.760Z,7.70
2023-03-30T07:40:12.803Z,7.72
2023-03-30T07:42:39.991Z,7.13
2023-03-30T07:45:07.515Z,7.82
2023-03-30T07:47:34.288Z,7.43
2023-03-30T07:50:01.201Z,8.95
2023-03-30T07:52:28.221Z,8.20
2023-03-30T07:54:55.568Z,8.23
2023-03-30T07:57:22.809Z,10.43
2023-03-30T07:59:49.737Z,8.15
2023-03-30T08:02:17.646Z,7.15
2023-03-30T08:04:44.634Z,8.30
2023-03-30T08:07:12.714Z,5.93
2023-03-30T08:09:39.508Z,8.55
2023-03-30T08:12:06.819Z,10.00
2023-03-30T08:14:33.577Z,7.25
2023-03-30T08:17:00.702Z,6.65
2023-03-30T08:19:28.575Z,5.72
2023-03-30T08:21:57.058Z,6.15
2023-03-30T08:24:23.911Z,6.65
2023-03-30T08:26:50.938Z,7.13
2023-03-30T08:29:18.811Z,8.68
2023-03-30T08:31:45.843Z,8.80
2023-03-30T08:34:13.110Z,7.15
2023-03-30T08:36:39.939Z,6.85
2023-03-30T08:39:06.900Z,5.18
2023-03-30T08:41:58.035Z,7.28
2023-03-30T08:44:42.650Z,5.90
2023-03-30T08:47:16.588Z,5.03
2023-03-30T08:49:56.134Z,5.38
2023-03-30T08:52:25.004Z,6.00
2023-03-30T08:54:52.446Z,7.43
2023-03-30T08:57:51.512Z,6.25
2023-03-30T09:00:37.742Z,6.05
2023-03-30T09:03:14.510Z,6.22
2023-03-30T09:06:00.959Z,6.20
2023-03-30T09:08:29.674Z,5.72
2023-03-30T09:10:59.705Z,5.65
2023-03-30T09:13:32.369Z,5.65
2023-03-30T09:16:05.059Z,5.90
2023-03-30T09:18:35.282Z,5.43
2023-03-30T09:21:06.156Z,5.88
2023-03-30T09:23:34.048Z,5.47
2023-03-30T09:26:16.156Z,6.70
2023-03-30T09:28:53.421Z,6.18
2023-03-30T09:31:44.359Z,6.15
2023-03-30T09:34:39.421Z,5.20
2023-03-30T09:37:18.543Z,5.13
2023-03-30T09:39:46.375Z,6.72
2023-03-30T09:42:48.036Z,6.05
2023-03-30T09:45:22.541Z,5.95
2023-03-30T09:47:49.280Z,6.05
2023-03-30T09:50:26.780Z,6.03
2023-03-30T09:53:02.087Z,6.30
2023-03-30T09:55:32.869Z,6.90
2023-03-30T09:58:21.353Z,5.97
2023-03-30T10:01:08.494Z,6.72
2023-03-30T10:03:35.934Z,6.55
2023-03-30T10:06:03.084Z,6.18
2023-03-30T10:08:30.333Z,6.85
2023-03-30T10:10:58.617Z,6.30
2023-03-30T10:13:33.331Z,6.15
2023-03-30T10:16:08.192Z,7.15
2023-03-30T10:18:38.337Z,6.95
2023-03-30T10:21:09.480Z,6.30
2023-03-30T10:23:42.750Z,5.95
2023-03-30T10:26:21.699Z,6.22
2023-03-30T10:29:03.278Z,5.78
2023-03-30T10:31:31.380Z,6.47
2023-03-30T10:34:00.743Z,6.68
2023-03-30T10:36:33.984Z,6.53
2023-03-30T10:39:14.539Z,7.03
2023-03-30T10:41:42.573Z,6.85
2023-03-30T10:44:32.300Z,6.68
2023-03-30T10:47:21.038Z,8.38
2023-03-30T10:49:58.724Z,5.97
2023-03-30T10:52:55.953Z,6.18
2023-03-30T10:55:43.336Z,6.75
2023-03-30T10:58:21.916Z,7.22
2023-03-30T11:01:07.575Z,7.28
2023-03-30T11:03:38.375Z,5.95
2023-03-30T11:06:29.085Z,5.70
2023-03-30T11:08:59.183Z,5.38
2023-03-30T11:11:36.626Z,8.30
2023-03-30T11:14:08.261Z,5.53
2023-03-30T11:16:42.314Z,5.72
2023-03-30T11:19:36.953Z,5.30
2023-03-30T11:22:12.558Z,5.22
2023-03-30T11:24:41.775Z,5.75
2023-03-30T11:27:19.030Z,5.28
2023-03-30T11:29:53.842Z,5.00
2023-03-30T11:32:39.140Z,5.25
2023-03-30T11:35:42.599Z,5.47
2023-03-30T11:38:27.322Z,5.10
2023-03-30T11:41:05.118Z,5.38
2023-03-30T11:43:32.213Z,5.00
2023-03-30T11:46:22.186Z,5.45
2023-03-30T11:48:52.020Z,6.15
2023-03-30T11:51:37.356Z,4.93
2023-03-30T11:54:21.483Z,7.32
2023-03-30T11:57:11.287Z,5.10
2023-03-30T12:00:16.537Z,5.35
2023-03-30T12:03:21.478Z,5.00
2023-03-30T12:05:51.820Z,5.43
2023-03-30T12:08:37.054Z,4.70
2023-03-30T12:11:18.304Z,5.15
2023-03-30T12:13:51.240Z,4.90
2023-03-30T12:16:28.392Z,5.05
2023-03-30T12:19:18.887Z,4.53
2023-03-30T12:21:58.668Z,5.03
2023-03-30T12:24:40.064Z,4.80
2023-03-30T12:27:11.122Z,5.25
2023-03-30T12:32:29.032Z,4.80
2023-03-30T12:34:57.822Z,4.30
2023-03-30T12:37:36.159Z,4.13
2023-03-30T12:40:10.301Z,4.90
2023-03-30T12:42:46.468Z,4.32
2023-03-30T12:45:29.294Z,4.63
2023-03-30T12:48:34.083Z,4.97
2023-03-30T12:51:13.040Z,5.22
2023-03-30T12:53:55.320Z,4.50
2023-03-30T12:56:46.485Z,4.65
2023-03-30T12:59:30.610Z,4.63
2023-03-30T13:02:23.728Z,4.45
2023-03-30T13:04:50.855Z,5.25
2023-03-30T13:07:21.977Z,7.05
2023-03-30T13:09:54.281Z,5.25
2023-03-30T13:12:29.969Z,4.97
2023-03-30T13:15:02.886Z,5.00
2023-03-30T13:17:56.971Z,4.53
2023-03-30T13:20:36.773Z,4.55
2023-03-30T13:23:15.518Z,4.93
2023-03-30T13:25:49.142Z,4.47
2023-03-30T13:28:44.338Z,4.20
2023-03-30T13:31:26.415Z,4.68
2023-03-30T13:34:11.484Z,4.38
2023-03-30T13:37:04.330Z,4.10
2023-03-30T13:39:46.580Z,4.13
2023-03-30T13:42:38.009Z,3.80
2023-03-30T13:45:26.666Z,4.25
2023-03-30T13:48:24.221Z,4.55
2023-03-30T13:50:58.476Z,4.20
2023-03-30T13:53:31.041Z,4.57
2023-03-30T13:55:58.217Z,4.60
2023-03-30T13:58:33.289Z,4.65
2023-03-30T14:01:09.846Z,4.32
2023-03-30T14:03:43.667Z,5.22
2023-03-30T14:06:13.566Z,5.10
2023-03-30T14:08:44.974Z,4.57
2023-03-30T14:11:15.254Z,4.50
2023-03-30T14:13:43.420Z,5.13
2023-03-30T14:16:17.622Z,4.43
2023-03-30T14:18:44.738Z,4.35
2023-03-30T14:21:17.480Z,4.82
2023-03-30T14:23:53.349Z,4.53
2023-03-30T14:26:26.492Z,4.63
2023-03-30T14:29:05.941Z,5.55
2023-03-30T14:31:41.265Z,4.57
2023-03-30T14:34:29.446Z,4.40
2023-03-30T14:37:04.293Z,4.30
2023-03-30T14:39:33.486Z,4.75
2023-03-30T14:42:17.555Z,4.82
2023-03-30T14:44:48.003Z,4.28
2023-03-30T14:49:44.808Z,3.90
2023-03-30T14:52:19.115Z,4.40
2023-03-30T14:55:01.873Z,5.07
2023-03-30T14:57:38.348Z,4.97
2023-03-30T15:00:17.243Z,5.32
2023-03-30T15:02:44.994Z,5.45
2023-03-30T15:05:12.011Z,5.13
2023-03-30T15:07:39.995Z,4.90
2023-03-30T15:10:07.375Z,4.82
2023-03-30T15:12:37.205Z,5.68
2023-03-30T15:15:07.643Z,5.35
2023-03-30T15:20:06.609Z,6.30
2023-03-30T15:22:37.750Z,4.55
2023-03-30T15:25:08.576Z,5.68
2023-03-30T15:27:37.887Z,5.22
2023-03-30T15:30:06.967Z,5.53
2023-03-30T15:32:43.776Z,6.82
2023-03-30T15:35:21.791Z,6.47
2023-03-30T15:38:30.802Z,6.13
2023-03-30T15:41:21.892Z,6.53
2023-03-30T15:43:59.092Z,5.60
2023-03-30T15:46:28.243Z,6.82
2023-03-30T15:48:57.684Z,7.05
2023-03-30T15:51:40.646Z,7.53
2023-03-30T15:54:13.819Z,8.00
2023-03-30T15:56:53.000Z,7.50
2023-03-30T15:59:24.891Z,8.05
2023-03-30T16:01:57.604Z,8.25
2023-03-30T16:04:25.322Z,9.45
2023-03-30T16:06:52.926Z,8.43
2023-03-30T16:09:19.889Z,7.93
2023-03-30T16:11:47.042Z,7.75
2023-03-30T16:14:20.114Z,7.35
2023-03-30T16:16:47.657Z,7.38
2023-03-30T16:19:17.426Z,7.82
2023-03-30T16:21:45.636Z,6.88
2023-03-30T16:24:13.854Z,8.52
2023-03-30T16:26:42.101Z,10.93
2023-03-30T16:29:20.347Z,12.23
2023-03-30T16:31:47.973Z,13.50
2023-03-30T16:34:18.790Z,13.18
2023-03-30T16:36:45.865Z,12.70
2023-03-30T16:39:24.691Z,10.52
2023-03-30T16:41:52.195Z,11.02
2023-03-30T16:44:21.246Z,12.38
2023-03-30T16:46:49.205Z,12.68
2023-03-30T16:49:18.665Z,12.40
2023-03-30T16:51:45.556Z,11.67
2023-03-30T16:54:23.554Z,12.75
2023-03-30T16:56:54.550Z,13.60
2023-03-30T16:59:26.936Z,12.07
2023-03-30T17:01:53.742Z,10.38
2023-03-30T17:04:20.670Z,10.57
2023-03-30T17:06:47.910Z,13.90
2023-03-30T17:09:17.639Z,15.63
2023-03-30T17:11:46.349Z,13.45
2023-03-30T17:14:13.529Z,16.63
2023-03-30T17:16:40.811Z,15.13
2023-03-30T17:19:12.256Z,15.05
2023-03-30T17:21:43.067Z,17.75
2023-03-30T17:24:13.591Z,13.35
2023-03-30T17:26:40.772Z,11.23
2023-03-30T17:29:07.615Z,10.32
2023-03-30T17:31:34.728Z,10.35
2023-03-30T17:34:01.560Z,12.77
2023-03-30T17:36:29.134Z,12.88
2023-03-30T17:38:57.578Z,25.48
2023-03-30T17:41:25.320Z,20.50
2023-03-30T17:43:52.309Z,25.17
2023-03-30T17:46:19.983Z,23.27
2023-03-30T17:48:47.009Z,22.15
2023-03-30T17:54:22.061Z,19.85
2023-03-30T17:57:02.956Z,14.43
2023-03-30T17:59:31.407Z,10.30
2023-03-30T18:01:58.146Z,9.75
2023-03-30T18:04:24.987Z,9.50
2023-03-30T18:06:52.351Z,9.13
2023-03-30T18:09:19.303Z,8.85
2023-03-30T18:11:46.307Z,9.10
2023-03-30T18:14:13.667Z,9.35
2023-03-30T18:16:43.595Z,9.93
2023-03-30T18:19:11.741Z,9.55
2023-03-30T18:21:38.451Z,10.32
2023-03-30T18:24:05.586Z,10.13
2023-03-30T18:26:33.455Z,9.82
2023-03-30T18:29:00.805Z,10.40
2023-03-30T18:31:27.561Z,8.30
2023-03-30T18:33:54.353Z,9.32
2023-03-30T18:36:22.004Z,9.02
2023-03-30T18:38:50.305Z,9.10
2023-03-30T18:41:17.049Z,8.95
2023-03-30T18:43:44.144Z,8.50
2023-03-30T18:46:14.237Z,9.40
2023-03-30T18:48:41.286Z,9.68
2023-03-30T18:51:10.995Z,8.88
2023-03-30T18:53:37.778Z,9.10
2023-03-30T18:56:04.890Z,10.40
2023-03-30T18:58:42.128Z,9.65
2023-03-30T19:01:09.730Z,11.18
2023-03-30T19:03:36.480Z,12.15
2023-03-30T19:06:03.529Z,12.82
2023-03-30T19:08:30.881Z,13.05
2023-03-30T19:10:58.099Z,14.25
2023-03-30T19:13:28.247Z,15.20
2023-03-30T19:15:56.049Z,14.25
2023-03-30T19:18:22.914Z,15.55
2023-03-30T19:20:51.016Z,14.93
2023-03-30T19:23:18.766Z,15.15
2023-03-30T19:25:46.318Z,14.82
2023-03-30T19:28:15.028Z,14.27
2023-03-30T19:30:42.497Z,13.98
2023-03-30T19:33:12.902Z,12.73
2023-03-30T19:38:08.199Z,12.90
2023-03-30T19:40:36.502Z,12.80
2023-03-30T19:43:03.324Z,12.90
2023-03-30T19:45:33.829Z,14.77
2023-03-30T19:48:00.688Z,13.30
2023-03-30T19:50:30.467Z,12.65
2023-03-30T19:52:57.990Z,12.38
2023-03-30T19:55:25.016Z,12.95
2023-03-30T19:57:51.832Z,13.23
2023-03-30T20:00:21.855Z,14.10
2023-03-30T20:02:51.946Z,13.85
2023-03-30T20:05:21.171Z,14.52
2023-03-30T20:07:51.463Z,14.05
2023-03-30T20:10:24.128Z,15.45
2023-03-30T20:12:52.014Z,16.35
2023-03-30T20:15:21.270Z,14.88
2023-03-30T20:17:48.176Z,16.75
2023-03-30T20:20:22.829Z,16.35
2023-03-30T20:22:53.361Z,15.73
2023-03-30T20:25:21.903Z,16.67
2023-03-30T20:27:49.511Z,15.43
2023-03-30T20:30:16.930Z,15.80
2023-03-30T20:32:45.220Z,16.25
2023-03-30T20:35:16.930Z,16.45
2023-03-30T20:37:43.854Z,17.20
2023-03-30T20:40:12.140Z,16.55
2023-03-30T20:42:46.659Z,15.80
2023-03-30T20:45:14.022Z,15.57
2023-03-30T20:47:40.790Z,16.77
2023-03-30T20:50:08.053Z,16.33
2023-03-30T20:52:35.453Z,16.83
2023-03-30T20:55:02.469Z,16.92
2023-03-30T20:57:29.272Z,16.85
2023-03-30T20:59:56.256Z,17.90
2023-03-30T21:02:23.131Z,16.88
2023-03-30T21:04:50.828Z,17.25
2023-03-30T21:07:18.182Z,17.40
2023-03-30T21:09:45.631Z,16.58
2023-03-30T21:12:12.590Z,18.70
2023-03-30T21:14:39.803Z,17.75
2023-03-30T21:17:06.964Z,18.08
2023-03-30T21:19:33.884Z,18.25
2023-03-30T21:22:01.185Z,18.65
2023-03-30T21:24:29.600Z,19.15
2023-03-30T21:26:56.806Z,19.10
2023-03-30T21:29:24.081Z,18.92
2023-03-30T21:31:51.039Z,19.35
2023-03-30T21:34:18.849Z,19.88
2023-03-30T21:36:46.245Z,19.05
2023-03-30T21:39:13.485Z,19.60
2023-03-30T21:41:40.572Z,19.85
2023-03-30T21:44:07.774Z,20.17
2023-03-30T21:46:34.677Z,19.50
2023-03-30T21:49:01.673Z,19.15
2023-03-30T21:51:30.382Z,19.27
2023-03-30T21:53:58.640Z,19.98
2023-03-30T21:56:29.103Z,19.70
2023-03-30T21:58:57.127Z,19.98
2023-03-30T22:01:24.432Z,20.70
2023-03-30T22:03:52.836Z,20.63
2023-03-30T22:06:20.923Z,19.48
2023-03-30T22:08:47.857Z,20.90
2023-03-30T22:11:20.287Z,21.10
2023-03-30T22:13:49.126Z,20.80
2023-03-30T22:16:19.024Z,21.23
2023-03-30T22:18:47.024Z,21.75
2023-03-30T22:21:18.492Z,22.52
2023-03-30T22:23:46.195Z,21.77
2023-03-30T22:26:13.589Z,23.80
2023-03-30T22:28:40.798Z,24.38
2023-03-30T22:31:08.890Z,25.25
2023-03-30T22:33:35.895Z,25.60
2023-03-30T22:36:03.799Z,25.88
2023-03-30T22:38:31.473Z,25.60
2023-03-30T22:41:07.934Z,26.08
2023-03-30T22:43:35.929Z,28.70
2023-03-30T22:46:04.265Z,26.48
2023-03-30T22:48:32.626Z,27.30
2023-03-30T22:51:04.034Z,28.25
2023-03-30T22:53:32.540Z,29.33
2023-03-30T22:55:59.756Z,28.58
2023-03-30T22:58:26.992Z,29.52
2023-03-30T23:00:59.928Z,30.33
2023-03-30T23:03:26.773Z,29.30
2023-03-30T23:05:53.570Z,29.92
2023-03-30T23:08:20.646Z,29.35
2023-03-30T23:10:47.328Z,31.38
2023-03-30T23:13:14.521Z,29.25
2023-03-30T23:15:42.835Z,28.90
2023-03-30T23:18:09.714Z,29.77
2023-03-30T23:20:36.950Z,29.42
2023-03-30T23:23:03.692Z,29.75
2023-03-30T23:25:30.492Z,30.02
2023-03-30T23:27:58.433Z,29.70
2023-03-30T23:30:25.641Z,30.45
2023-03-30T23:32:52.819Z,31.55
2023-03-30T23:35:19.896Z,30.15
2023-03-30T23:37:46.635Z,30.20
2023-03-30T23:40:13.401Z,30.65
2023-03-30T23:42:40.417Z,29.88
2023-03-30T23:45:08.322Z,31.08
2023-03-30T23:47:37.568Z,30.08
2023-03-30T23:50:05.481Z,30.05
2023-03-30T23:52:34.987Z,29.00
2023-03-30T23:55:02.183Z,28.93
2023-03-30T23:57:30.575Z,28.58
2023-03-30T23:59:57.394Z,29.17
